Dades meteomassalio
Diari Summary for Gener 25, 2017 Units:  English    Metric   Both
« Previous Day
Next Day »
Diari Semanal Mensual Anual Personalitzat
  Maxima: Minima: Mijana:
Temperatura: TemperatureC °F -1.6 °F 4.9 °F
Rosada: DewpointC °F -3.7 °F -2.1 °F
Humitat: Humidity % 44 % 62 %
Velocitat del vent: WindSpeedKMH mph 0.0 mph 10.2 mph
Racha vent: WindSpeedGustKMH mph - -
Vent:- - WNW
Pressio: PressurehPa in 1018.5 in -
Pluja: 0.0 in    
Historical Graphs
 
 
Tabular Data for Gener 25, 2017
Time Temperature Dew Point Pressure Wind Wind Speed Wind Gust Humidity Rainfall Rate (Hourly) solar Conditions
TemperatureC °F DewpointC °F PressurehPa in Calm     Humidity % HourlyPrecipMM in SolarRadiationWatts/m^2 W/m2 Conditions
00:02 6.4 °F -0.1 °F 1023.2 in West 12.9 mph 12.9 mph 63 % 0.0 in 0.0 W/m2 CLR
00:07 6.5 °F -0.3 °F 1023.2 in West 29.6 mph 29.6 mph 62 % 0.0 in 0.0 W/m2 CLR
00:12 6.5 °F -0.3 °F 1023.2 in West 25.9 mph 25.9 mph 62 % 0.0 in 0.0 W/m2 CLR
00:17 6.4 °F -0.4 °F 1023.2 in West 24.1 mph 24.1 mph 62 % 0.0 in 0.0 W/m2 CLR
00:22 6.3 °F -0.4 °F 1023.2 in West 18.5 mph 18.5 mph 62 % 0.0 in 0.0 W/m2 CLR
00:28 6.3 °F -0.4 °F 1023.2 in West 16.7 mph 16.7 mph 62 % 0.0 in 0.0 W/m2 CLR
00:33 6.2 °F -0.6 °F 1023.2 in West 22.2 mph 22.2 mph 62 % 0.0 in 0.0 W/m2 CLR
00:38 6.1 °F -0.6 °F 1023.2 in WNW 19.3 mph 19.3 mph 62 % 0.0 in 0.0 W/m2 CLR
00:43 6.1 °F -0.7 °F 1022.9 in WNW 20.9 mph 20.9 mph 62 % 0.0 in 0.0 W/m2 CLR
00:48 6.2 °F -0.6 °F 1022.9 in WNW 24.1 mph 24.1 mph 62 % 0.0 in 0.0 W/m2 CLR
00:53 6.2 °F -0.5 °F 1022.9 in West 27.8 mph 27.8 mph 62 % 0.0 in 0.0 W/m2 CLR
00:58 6.2 °F -0.8 °F 1022.9 in West 24.1 mph 24.1 mph 61 % 0.0 in 0.0 W/m2 CLR
01:03 6.2 °F -0.8 °F 1022.9 in West 19.3 mph 19.3 mph 61 % 0.0 in 0.0 W/m2 CLR
01:08 6.2 °F -1.1 °F 1022.9 in West 24.1 mph 24.1 mph 60 % 0.0 in 0.0 W/m2 CLR
01:13 6.2 °F -1.1 °F 1022.6 in West 29.6 mph 29.6 mph 60 % 0.0 in 0.0 W/m2 CLR
01:18 6.1 °F -1.3 °F 1022.6 in West 20.4 mph 20.4 mph 59 % 0.0 in 0.0 W/m2 CLR
01:23 6.1 °F -1.4 °F 1022.6 in West 25.9 mph 25.9 mph 59 % 0.0 in 0.0 W/m2 CLR
01:28 6.2 °F -1.5 °F 1022.6 in West 20.4 mph 20.4 mph 58 % 0.0 in 0.0 W/m2 CLR
01:33 6.1 °F -1.6 °F 1022.6 in West 20.9 mph 20.9 mph 58 % 0.0 in 0.0 W/m2 CLR
01:38 6.1 °F -1.6 °F 1022.6 in West 22.2 mph 22.2 mph 58 % 0.0 in 0.0 W/m2 CLR
01:43 6.1 °F -1.6 °F 1022.6 in West 27.8 mph 27.8 mph 58 % 0.0 in 0.0 W/m2 CLR
01:48 6.1 °F -1.6 °F 1022.6 in West 20.4 mph 20.4 mph 58 % 0.0 in 0.0 W/m2 CLR
01:53 6.1 °F -1.6 °F 1022.6 in West 20.4 mph 20.4 mph 58 % 0.0 in 0.0 W/m2 CLR
01:58 5.9 °F -1.5 °F 1022.6 in WNW 18.5 mph 18.5 mph 59 % 0.0 in 0.0 W/m2 CLR
02:03 5.7 °F -1.7 °F 1022.6 in WNW 18.5 mph 18.5 mph 59 % 0.0 in 0.0 W/m2 CLR
02:08 5.7 °F -1.7 °F 1022.6 in WNW 16.7 mph 16.7 mph 59 % 0.0 in 0.0 W/m2 CLR
02:13 5.6 °F -1.8 °F 1022.6 in WNW 18.5 mph 18.5 mph 59 % 0.0 in 0.0 W/m2 CLR
02:18 5.6 °F -2.0 °F 1022.6 in West 16.7 mph 16.7 mph 58 % 0.0 in 0.0 W/m2 CLR
02:23 5.6 °F -2.0 °F 1022.2 in West 7.4 mph 7.4 mph 58 % 0.0 in 0.0 W/m2 CLR
02:28 5.6 °F -2.1 °F 1022.2 in WSW 1.6 mph   58 % 0.0 in 0.0 W/m2 CLR
02:33 5.5 °F -2.3 °F 1022.6 in West 5.6 mph   57 % 0.0 in 0.0 W/m2 CLR
02:38 5.5 °F -2.3 °F 1022.6 in Calm     57 % 0.0 in 0.0 W/m2 CLR
02:43 5.4 °F -2.4 °F 1022.2 in Calm     57 % 0.0 in 0.0 W/m2 CLR
02:49 5.4 °F -2.4 °F 1022.2 in Calm     57 % 0.0 in 0.0 W/m2 CLR
02:54 5.3 °F -2.3 °F 1022.2 in Calm     58 % 0.0 in 0.0 W/m2 CLR
02:59 5.2 °F -2.4 °F 1022.2 in WNW 4.8 mph 4.8 mph 58 % 0.0 in 0.0 W/m2 CLR
03:04 5.1 °F -2.6 °F 1022.2 in West 9.3 mph 9.3 mph 58 % 0.0 in 0.0 W/m2 CLR
03:09 5.1 °F -2.3 °F 1022.6 in West 5.6 mph 5.6 mph 59 % 0.0 in 0.0 W/m2 CLR
03:14 5.0 °F -2.3 °F 1022.2 in Calm     59 % 0.0 in 0.0 W/m2 CLR
03:19 4.9 °F -2.4 °F 1022.2 in Calm     59 % 0.0 in 0.0 W/m2 CLR
03:24 4.8 °F -2.3 °F 1022.2 in Calm     60 % 0.0 in 0.0 W/m2 CLR
03:29 4.7 °F -2.4 °F 1022.2 in Calm     60 % 0.0 in 0.0 W/m2 CLR
03:34 4.7 °F -2.4 °F 1021.9 in Calm     60 % 0.0 in 0.0 W/m2 CLR
03:39 4.6 °F -2.3 °F 1021.9 in Calm     61 % 0.0 in 0.0 W/m2 CLR
03:44 4.4 °F -2.3 °F 1021.9 in Calm     62 % 0.0 in 0.0 W/m2 CLR
03:49 4.2 °F -2.5 °F 1021.9 in Calm     62 % 0.0 in 0.0 W/m2 CLR
03:54 4.1 °F -2.4 °F 1021.9 in Calm     63 % 0.0 in 0.0 W/m2 CLR
03:59 4.0 °F -2.4 °F 1021.9 in Calm     63 % 0.0 in 0.0 W/m2 CLR
04:04 4.1 °F -2.4 °F 1021.9 in Calm     63 % 0.0 in 0.0 W/m2 CLR
04:09 4.0 °F -2.6 °F 1021.9 in Calm     62 % 0.0 in 0.0 W/m2 CLR
04:14 3.9 °F -2.5 °F 1021.9 in Calm     63 % 0.0 in 0.0 W/m2 CLR
04:19 3.7 °F -2.5 °F 1021.9 in Calm     64 % 0.0 in 0.0 W/m2 CLR
04:24 3.6 °F -2.6 °F 1021.9 in Calm     64 % 0.0 in 0.0 W/m2 CLR
04:29 3.5 °F -2.7 °F 1021.9 in Calm     64 % 0.0 in 0.0 W/m2 CLR
04:34 3.4 °F -2.6 °F 1021.9 in Calm     65 % 0.0 in 0.0 W/m2 CLR
04:39 3.2 °F -2.7 °F 1021.9 in Calm     65 % 0.0 in 0.0 W/m2 CLR
04:44 3.3 °F -2.6 °F 1021.9 in Calm     65 % 0.0 in 0.0 W/m2 CLR
04:49 3.8 °F -2.8 °F 1021.9 in WNW 14.8 mph 14.8 mph 62 % 0.0 in 0.0 W/m2 CLR
04:54 4.4 °F -2.9 °F 1021.9 in WNW 18.5 mph 18.5 mph 59 % 0.0 in 0.0 W/m2 CLR
04:59 4.7 °F -2.9 °F 1021.9 in WNW 16.1 mph 16.1 mph 58 % 0.0 in 0.0 W/m2 CLR
05:04 4.7 °F -3.1 °F 1021.6 in WNW 22.2 mph 22.2 mph 57 % 0.0 in 0.0 W/m2 CLR
05:09 4.9 °F -3.2 °F 1021.9 in NW 27.8 mph 27.8 mph 56 % 0.0 in 0.0 W/m2 CLR
05:14 4.9 °F -3.1 °F 1021.6 in NW 29.6 mph 29.6 mph 56 % 0.0 in 0.0 W/m2 CLR
05:20 5.0 °F -3.3 °F 1021.6 in WNW 24.1 mph 24.1 mph 55 % 0.0 in 0.0 W/m2 CLR
05:25 5.0 °F -3.3 °F 1021.6 in WNW 20.4 mph 20.4 mph 55 % 0.0 in 0.0 W/m2 CLR
05:30 5.0 °F -3.3 °F 1021.6 in WNW 16.7 mph 16.7 mph 55 % 0.0 in 0.0 W/m2 CLR
05:35 4.9 °F -3.4 °F 1021.9 in WNW 11.1 mph 11.1 mph 55 % 0.0 in 0.0 W/m2 CLR
05:40 4.8 °F -3.3 °F 1021.9 in West 11.1 mph 11.1 mph 56 % 0.0 in 0.0 W/m2 CLR
05:45 4.7 °F -3.4 °F 1021.6 in West 11.1 mph 11.1 mph 56 % 0.0 in 0.0 W/m2 CLR
05:50 4.6 °F -3.4 °F 1021.6 in West 14.8 mph 14.8 mph 56 % 0.0 in 0.0 W/m2 CLR
05:55 4.5 °F -3.3 °F 1021.6 in WNW 9.3 mph 9.3 mph 57 % 0.0 in 0.0 W/m2 CLR
06:00 4.4 °F -3.4 °F 1021.6 in NW 11.1 mph 11.1 mph 57 % 0.0 in 0.0 W/m2 CLR
06:05 4.4 °F -3.4 °F 1021.6 in NW 11.1 mph 11.1 mph 57 % 0.0 in 0.0 W/m2 CLR
06:10 4.4 °F -3.4 °F 1021.6 in NW 18.5 mph 18.5 mph 57 % 0.0 in 0.0 W/m2 CLR
06:15 4.4 °F -3.4 °F 1021.6 in NW 11.3 mph 11.3 mph 57 % 0.0 in 0.0 W/m2 CLR
06:20 4.2 °F -3.3 °F 1021.9 in NW 16.1 mph 16.1 mph 58 % 0.0 in 0.0 W/m2 CLR
06:25 4.1 °F -3.4 °F 1021.9 in WNW 22.2 mph 22.2 mph 58 % 0.0 in 0.0 W/m2 CLR
06:30 4.2 °F -3.6 °F 1021.9 in WNW 18.5 mph 18.5 mph 57 % 0.0 in 0.0 W/m2 CLR
06:35 4.3 °F -3.5 °F 1021.9 in WNW 11.1 mph 11.1 mph 57 % 0.0 in 0.0 W/m2 CLR
06:40 4.2 °F -3.4 °F 1021.6 in WNW 7.4 mph 7.4 mph 58 % 0.0 in 0.0 W/m2 CLR
06:45 4.1 °F -3.5 °F 1021.9 in WNW 11.1 mph 11.1 mph 58 % 0.0 in 0.0 W/m2 CLR
06:50 3.9 °F -3.3 °F 1021.9 in WNW 14.5 mph 14.5 mph 59 % 0.0 in 0.0 W/m2 CLR
06:55 3.9 °F -3.3 °F 1021.9 in WNW 16.7 mph 16.7 mph 59 % 0.0 in 0.0 W/m2 CLR
07:00 4.1 °F -3.5 °F 1021.6 in WNW 14.5 mph 14.5 mph 58 % 0.0 in 0.0 W/m2 CLR
07:05 4.2 °F -3.4 °F 1021.9 in West 16.7 mph 16.7 mph 58 % 0.0 in 0.0 W/m2 CLR
07:10 4.2 °F -3.6 °F 1021.9 in West 14.8 mph 14.8 mph 57 % 0.0 in 0.0 W/m2 CLR
07:15 4.1 °F -3.7 °F 1021.9 in West 16.7 mph 16.7 mph 57 % 0.0 in 0.0 W/m2 CLR
07:20 4.1 °F -3.4 °F 1021.9 in West 16.7 mph 16.7 mph 58 % 0.0 in 0.0 W/m2 CLR
07:25 4.1 °F -3.5 °F 1021.9 in West 18.5 mph 18.5 mph 58 % 0.0 in 0.0 W/m2 CLR
07:30 4.0 °F -3.6 °F 1021.9 in WNW 20.4 mph 20.4 mph 58 % 0.0 in 0.0 W/m2 CLR
07:35 4.0 °F -3.3 °F 1021.9 in West 18.5 mph 18.5 mph 59 % 0.0 in 0.0 W/m2 CLR
07:40 3.9 °F -3.4 °F 1021.9 in West 22.2 mph 22.2 mph 59 % 0.0 in 0.0 W/m2 CLR
07:45 3.9 °F -3.2 °F 1021.9 in West 27.8 mph 27.8 mph 60 % 0.0 in 0.0 W/m2 CLR
07:50 3.8 °F -3.3 °F 1021.9 in West 18.5 mph 18.5 mph 60 % 0.0 in 0.0 W/m2 CLR
07:55 3.7 °F -3.1 °F 1021.9 in West 20.4 mph 20.4 mph 61 % 0.0 in 0.0 W/m2 CLR
08:00 3.7 °F -2.9 °F 1021.9 in West 20.4 mph 20.4 mph 62 % 0.0 in 0.0 W/m2 CLR
08:05 3.8 °F -3.1 °F 1021.9 in West 25.9 mph 25.9 mph 61 % 0.0 in 0.0 W/m2 CLR
08:10 3.8 °F -3.0 °F 1021.9 in WNW 22.2 mph 22.2 mph 61 % 0.0 in 0.0 W/m2 OVC
08:15 3.8 °F -3.0 °F 1021.9 in WNW 18.5 mph 18.5 mph 61 % 0.0 in 0.0 W/m2 OVC
08:20 3.7 °F -3.1 °F 1021.9 in West 18.5 mph 18.5 mph 61 % 0.0 in 0.0 W/m2 OVC
08:25 3.7 °F -3.1 °F 1021.9 in WNW 18.5 mph 18.5 mph 61 % 0.0 in 5.0 W/m2 BKN
08:30 3.6 °F -3.0 °F 1021.9 in WNW 22.5 mph 22.5 mph 62 % 0.0 in 9.0 W/m2 BKN
08:35 3.7 °F -2.9 °F 1021.9 in WNW 17.7 mph 17.7 mph 62 % 0.0 in 11.0 W/m2 BKN
08:40 3.8 °F -3.2 °F 1021.9 in WNW 16.7 mph 16.7 mph 60 % 0.0 in 14.0 W/m2 BKN
08:45 3.9 °F -3.1 °F 1021.9 in West 16.7 mph 16.7 mph 60 % 0.0 in 18.0 W/m2 BKN
08:50 4.1 °F -3.2 °F 1021.9 in West 14.8 mph 14.8 mph 59 % 0.0 in 23.0 W/m2 BKN
08:55 4.1 °F -3.2 °F 1021.9 in West 18.5 mph 18.5 mph 59 % 0.0 in 33.0 W/m2 BKN
09:00 4.2 °F -3.1 °F 1021.9 in West 17.7 mph 17.7 mph 59 % 0.0 in 40.0 W/m2 BKN
09:05 4.3 °F -3.3 °F 1022.2 in WNW 14.5 mph 14.5 mph 58 % 0.0 in 56.0 W/m2 BKN
09:10 4.3 °F -3.2 °F 1021.9 in West 16.7 mph 16.7 mph 58 % 0.0 in 65.0 W/m2 BKN
09:15 4.4 °F -3.2 °F 1021.9 in WNW 24.1 mph 24.1 mph 58 % 0.0 in 69.0 W/m2 BKN
09:20 4.5 °F -3.1 °F 1022.2 in West 13.0 mph 13.0 mph 58 % 0.0 in 97.0 W/m2 BKN
09:25 4.6 °F -3.0 °F 1022.2 in West 13.0 mph 13.0 mph 58 % 0.0 in 109.0 W/m2 BKN
09:30 4.6 °F -2.9 °F 1022.2 in WNW 14.8 mph 14.8 mph 58 % 0.0 in 125.0 W/m2 BKN
09:31 4.6 °F -2.9 °F 1022.2 in WNW 14.8 mph 14.8 mph 58 % 0.0 in 127.0 W/m2 BKN
09:36 4.7 °F -2.9 °F 1022.2 in WNW 18.5 mph 18.5 mph 58 % 0.0 in 141.0 W/m2 BKN
09:41 4.6 °F -2.9 °F 1022.2 in WNW 24.1 mph 24.1 mph 58 % 0.0 in 100.0 W/m2 SCT
09:46 4.7 °F -2.8 °F 1021.9 in WNW 18.5 mph 18.5 mph 58 % 0.0 in 169.0 W/m2 SCT
09:51 4.8 °F -2.8 °F 1022.2 in WNW 20.4 mph 20.4 mph 58 % 0.0 in 134.0 W/m2 SCT
09:56 4.7 °F -2.8 °F 1022.2 in WNW 14.8 mph 14.8 mph 58 % 0.0 in 171.0 W/m2 BKN
10:01 4.8 °F -2.6 °F 1022.2 in NW 20.4 mph 20.4 mph 59 % 0.0 in 223.0 W/m2 BKN
10:06 4.8 °F -2.3 °F 1022.2 in WNW 18.5 mph 18.5 mph 60 % 0.0 in 237.0 W/m2 SCT
10:11 4.8 °F -2.3 °F 1022.2 in NW 18.5 mph 18.5 mph 60 % 0.0 in 251.0 W/m2 SCT
10:16 4.8 °F -2.3 °F 1022.2 in NW 18.5 mph 18.5 mph 60 % 0.0 in 267.0 W/m2 SCT
10:21 4.9 °F -2.4 °F 1022.2 in WNW 20.4 mph 20.4 mph 59 % 0.0 in 279.0 W/m2 SCT
10:26 5.0 °F -2.1 °F 1022.2 in WNW 16.1 mph 16.1 mph 60 % 0.0 in 290.0 W/m2 SCT
10:31 5.1 °F -2.3 °F 1022.2 in WNW 11.1 mph 11.1 mph 59 % 0.0 in 302.0 W/m2 SCT
10:36 5.2 °F -2.2 °F 1022.2 in WNW 16.7 mph 16.7 mph 59 % 0.0 in 313.0 W/m2 SCT
10:41 5.3 °F -1.8 °F 1022.2 in NW 11.1 mph 11.1 mph 60 % 0.0 in 325.0 W/m2 FEW
10:46 5.4 °F -2.0 °F 1022.2 in NW 16.7 mph 16.7 mph 59 % 0.0 in 332.0 W/m2 FEW
10:51 5.3 °F -1.8 °F 1022.2 in NW 13.0 mph 13.0 mph 60 % 0.0 in 345.0 W/m2 CLR
10:56 5.4 °F -1.7 °F 1022.2 in NW 9.7 mph 9.7 mph 60 % 0.0 in 355.0 W/m2 CLR
11:01 5.6 °F -1.6 °F 1021.9 in NW 18.5 mph 18.5 mph 60 % 0.0 in 367.0 W/m2 CLR
11:06 5.6 °F -1.8 °F 1021.9 in NW 11.1 mph 11.1 mph 59 % 0.0 in 376.0 W/m2 CLR
11:11 5.8 °F -1.3 °F 1021.9 in NW 13.0 mph 13.0 mph 60 % 0.0 in 383.0 W/m2 CLR
11:16 5.9 °F -1.8 °F 1021.9 in NW 18.5 mph 18.5 mph 58 % 0.0 in 392.0 W/m2 CLR
11:21 6.0 °F -1.7 °F 1021.9 in NW 14.8 mph 14.8 mph 58 % 0.0 in 404.0 W/m2 CLR
11:26 6.2 °F -1.5 °F 1021.9 in NW 13.0 mph 13.0 mph 58 % 0.0 in 413.0 W/m2 CLR
11:31 6.4 °F -1.8 °F 1021.9 in West 16.1 mph 16.1 mph 56 % 0.0 in 420.0 W/m2 CLR
11:36 6.5 °F -1.2 °F 1021.9 in WNW 13.0 mph 13.0 mph 58 % 0.0 in 427.0 W/m2 CLR
11:41 6.6 °F -2.1 °F 1021.9 in WNW 17.7 mph 17.7 mph 54 % 0.0 in 434.0 W/m2 CLR
11:46 6.6 °F -2.1 °F 1021.6 in WNW 24.1 mph 24.1 mph 54 % 0.0 in 441.0 W/m2 CLR
11:51 6.5 °F -2.4 °F 1021.6 in West 22.2 mph 22.2 mph 53 % 0.0 in 448.0 W/m2 CLR
11:56 6.6 °F -2.1 °F 1021.6 in West 11.1 mph 11.1 mph 54 % 0.0 in 454.0 W/m2 CLR
12:01 6.7 °F -1.4 °F 1021.6 in NW 18.5 mph 18.5 mph 56 % 0.0 in 457.0 W/m2 CLR
12:06 6.6 °F -1.8 °F 1021.6 in NW 18.5 mph 18.5 mph 55 % 0.0 in 466.0 W/m2 CLR
12:14 6.8 °F -1.2 °F 1021.2 in NW 19.3 mph 19.3 mph 57 % 0.0 in 473.0 W/m2 CLR
12:19 6.7 °F -1.5 °F 1021.2 in WNW 18.5 mph 18.5 mph 56 % 0.0 in 475.0 W/m2 OVC
12:24 6.7 °F -1.3 °F 1021.2 in NW 14.8 mph 14.8 mph 57 % 0.0 in 476.0 W/m2 CLR
12:29 6.8 °F -1.1 °F 1020.9 in WNW 18.5 mph 18.5 mph 57 % 0.0 in 478.0 W/m2 OVC
12:34 6.8 °F -1.3 °F 1020.9 in NW 18.5 mph 18.5 mph 56 % 0.0 in 478.0 W/m2 OVC
12:39 6.8 °F -1.3 °F 1020.9 in NW 18.5 mph 18.5 mph 56 % 0.0 in 478.0 W/m2 OVC
12:44 7.1 °F -1.4 °F 1020.9 in NW 12.9 mph 12.9 mph 55 % 0.0 in 492.0 W/m2 CLR
12:49 7.2 °F -1.2 °F 1020.9 in NNW 13.0 mph 13.0 mph 55 % 0.0 in 494.0 W/m2 CLR
12:54 7.3 °F -1.4 °F 1020.9 in NW 8.0 mph 8.0 mph 54 % 0.0 in 492.0 W/m2 CLR
12:59 7.5 °F -0.9 °F 1020.5 in NW 25.9 mph 25.9 mph 55 % 0.0 in 497.0 W/m2 CLR
13:04 7.6 °F -0.9 °F 1020.5 in NNW 20.4 mph 20.4 mph 55 % 0.0 in 496.0 W/m2 CLR
13:09 7.6 °F -0.9 °F 1020.5 in NNW 13.0 mph 13.0 mph 55 % 0.0 in 499.0 W/m2 CLR
13:14 7.7 °F -1.0 °F 1020.2 in NW 12.9 mph 12.9 mph 54 % 0.0 in 497.0 W/m2 CLR
13:19 7.8 °F -1.2 °F 1020.2 in NW 14.8 mph 14.8 mph 53 % 0.0 in 497.0 W/m2 CLR
13:24 7.8 °F -0.9 °F 1020.2 in Calm     54 % 0.0 in 499.0 W/m2 CLR
13:29 8.0 °F -1.0 °F 1019.9 in Calm     53 % 0.0 in 499.0 W/m2 CLR
13:34 8.2 °F -0.6 °F 1019.9 in NW 13.0 mph 13.0 mph 54 % 0.0 in 503.0 W/m2 CLR
13:39 8.5 °F -0.6 °F 1019.9 in WNW 14.8 mph 14.8 mph 53 % 0.0 in 497.0 W/m2 CLR
13:45 8.5 °F -0.8 °F 1019.9 in NW 11.1 mph 11.1 mph 52 % 0.0 in 496.0 W/m2 CLR
13:50 8.4 °F -0.9 °F 1019.5 in NW 14.8 mph 15.0 mph 52 % 0.0 in 490.0 W/m2 CLR
13:55 8.4 °F -0.2 °F 1019.5 in NNW 14.5 mph 14.5 mph 55 % 0.0 in 490.0 W/m2 CLR
14:00 8.3 °F -0.2 °F 1019.5 in NW 9.3 mph   55 % 0.0 in 482.0 W/m2 CLR
14:05 8.6 °F -0.2 °F 1019.5 in Calm     54 % 0.0 in 478.0 W/m2 CLR
14:10 8.6 °F -0.8 °F 1019.2 in NNW 16.7 mph 16.7 mph 52 % 0.0 in 475.0 W/m2 CLR
14:15 8.6 °F -0.8 °F 1019.2 in NW 18.5 mph 18.5 mph 52 % 0.0 in 468.0 W/m2 CLR
14:20 8.7 °F -0.6 °F 1019.2 in NW 9.3 mph   52 % 0.0 in 464.0 W/m2 CLR
14:25 8.9 °F -0.4 °F 1019.2 in NW 16.7 mph 16.7 mph 52 % 0.0 in 457.0 W/m2 CLR
14:30 8.9 °F -0.7 °F 1019.2 in NW 14.8 mph 14.8 mph 51 % 0.0 in 454.0 W/m2 CLR
14:35 8.8 °F -0.3 °F 1018.8 in NNW 16.7 mph 16.7 mph 53 % 0.0 in 450.0 W/m2 CLR
14:40 8.8 °F -0.3 °F 1018.8 in NNW 18.5 mph 18.5 mph 53 % 0.0 in 448.0 W/m2 CLR
14:45 8.7 °F -0.7 °F 1018.8 in NW 13.0 mph 13.0 mph 52 % 0.0 in 441.0 W/m2 CLR
14:50 8.7 °F -0.7 °F 1018.8 in NW 13.0 mph 13.0 mph 52 % 0.0 in 425.0 W/m2 CLR
14:55 8.8 °F -0.1 °F 1018.8 in NW 11.3 mph 11.3 mph 54 % 0.0 in 418.0 W/m2 CLR
15:00 8.8 °F -0.5 °F 1018.8 in NW 18.5 mph 18.5 mph 52 % 0.0 in 411.0 W/m2 CLR
15:05 8.8 °F -1.1 °F 1018.8 in NW 18.5 mph 18.5 mph 50 % 0.0 in 404.0 W/m2 CLR
15:10 8.7 °F -0.9 °F 1018.8 in NW 20.4 mph 20.4 mph 51 % 0.0 in 396.0 W/m2 CLR
15:15 8.8 °F -0.8 °F 1018.5 in NW 14.8 mph 14.8 mph 51 % 0.0 in 390.0 W/m2 CLR
15:20 8.9 °F -0.7 °F 1018.5 in NW 7.4 mph 8.0 mph 51 % 0.0 in 383.0 W/m2 CLR
15:25 9.0 °F -0.9 °F 1018.5 in NW 13.0 mph 13.0 mph 50 % 0.0 in 364.0 W/m2 CLR
15:30 9.1 °F -0.6 °F 1018.5 in NW 11.3 mph 11.3 mph 51 % 0.0 in 355.0 W/m2 CLR
15:35 9.2 °F -0.7 °F 1018.5 in NW 14.8 mph 14.8 mph 50 % 0.0 in 348.0 W/m2 CLR
15:40 9.1 °F -1.3 °F 1018.5 in NW 18.5 mph 18.5 mph 48 % 0.0 in 334.0 W/m2 CLR
15:45 9.0 °F -1.2 °F 1018.5 in NW 11.1 mph 11.1 mph 49 % 0.0 in 329.0 W/m2 CLR
15:50 9.0 °F -1.4 °F 1018.5 in NW 16.7 mph 16.7 mph 48 % 0.0 in 320.0 W/m2 CLR
15:55 8.9 °F -1.2 °F 1018.5 in NW 19.3 mph 19.3 mph 49 % 0.0 in 309.0 W/m2 CLR
16:00 8.9 °F -1.8 °F 1018.5 in NNW 19.3 mph 19.3 mph 47 % 0.0 in 295.0 W/m2 CLR
16:05 8.9 °F -1.5 °F 1018.5 in NW 18.5 mph 18.5 mph 48 % 0.0 in 283.0 W/m2 CLR
16:10 8.9 °F -1.5 °F 1018.5 in NW 18.5 mph 18.5 mph 48 % 0.0 in 272.0 W/m2 CLR
16:15 9.0 °F -1.7 °F 1018.5 in NNW 18.5 mph 18.5 mph 47 % 0.0 in 257.0 W/m2 CLR
16:20 9.0 °F -1.4 °F 1018.5 in NNW 13.0 mph 13.0 mph 48 % 0.0 in 241.0 W/m2 CLR
16:25 9.0 °F -2.0 °F 1018.5 in NW 16.7 mph 16.7 mph 46 % 0.0 in 229.0 W/m2 CLR
16:30 9.1 °F -1.3 °F 1018.5 in WNW 13.0 mph 13.0 mph 48 % 0.0 in 211.0 W/m2 CLR
16:35 9.2 °F -1.9 °F 1018.5 in WNW 16.7 mph 16.7 mph 46 % 0.0 in 199.0 W/m2 CLR
16:40 9.0 °F -2.3 °F 1018.5 in WNW 11.1 mph 11.1 mph 45 % 0.0 in 181.0 W/m2 CLR
16:45 9.1 °F -2.6 °F 1018.5 in WNW 5.6 mph 5.6 mph 44 % 0.0 in 167.0 W/m2 CLR
16:50 9.1 °F -2.2 °F 1018.5 in NW 5.6 mph 5.6 mph 45 % 0.0 in 149.0 W/m2 CLR
16:55 9.0 °F -2.3 °F 1018.5 in NW 9.3 mph 9.3 mph 45 % 0.0 in 135.0 W/m2 CLR
17:00 8.9 °F -1.8 °F 1018.5 in NW 1.9 mph 1.9 mph 47 % 0.0 in 118.0 W/m2 CLR
17:05 9.1 °F -2.6 °F 1018.5 in Calm     44 % 0.0 in 104.0 W/m2 CLR
17:10 9.1 °F -2.2 °F 1018.5 in Calm     45 % 0.0 in 91.0 W/m2 CLR
17:15 9.1 °F -1.9 °F 1018.5 in Calm     46 % 0.0 in 77.0 W/m2 FEW
17:20 9.0 °F -2.6 °F 1018.5 in Calm     44 % 0.0 in 58.0 W/m2 SCT
17:25 8.9 °F -2.4 °F 1018.8 in Calm     45 % 0.0 in 53.0 W/m2 SCT
17:30 8.9 °F -2.1 °F 1018.8 in Calm     46 % 0.0 in 40.0 W/m2 BKN
17:35 8.7 °F -2.6 °F 1018.8 in Calm     45 % 0.0 in 32.0 W/m2 BKN
17:40 8.6 °F -1.8 °F 1018.8 in Calm     48 % 0.0 in 23.0 W/m2 BKN
17:45 8.3 °F -1.8 °F 1018.8 in Calm     49 % 0.0 in 16.0 W/m2 BKN
17:50 8.1 °F -2.8 °F 1018.8 in Calm     46 % 0.0 in 14.0 W/m2 BKN
17:55 8.0 °F -2.1 °F 1018.8 in Calm     49 % 0.0 in 11.0 W/m2 BKN
17:56 7.9 °F -2.1 °F 1018.8 in Calm     49 % 0.0 in 11.0 W/m2 BKN
18:01 7.8 °F -2.3 °F 1018.8 in Calm     49 % 0.0 in 9.0 W/m2 BKN
18:06 7.6 °F -1.9 °F 1018.8 in Calm     51 % 0.0 in 5.0 W/m2 OVC
18:11 7.3 °F -1.9 °F 1019.2 in Calm     52 % 0.0 in 0.0 W/m2 OVC
18:16 7.0 °F -1.9 °F 1019.2 in Calm     53 % 0.0 in 0.0 W/m2 OVC
18:21 6.8 °F -2.2 °F 1019.2 in Calm     53 % 0.0 in 0.0 W/m2 CLR
18:26 6.6 °F -1.6 °F 1019.2 in Calm     56 % 0.0 in 0.0 W/m2 CLR
18:31 6.1 °F -1.3 °F 1019.2 in Calm     59 % 0.0 in 0.0 W/m2 CLR
18:36 5.7 °F -1.3 °F 1019.2 in Calm     61 % 0.0 in 0.0 W/m2 CLR
18:41 5.3 °F -1.4 °F 1019.2 in Calm     62 % 0.0 in 0.0 W/m2 CLR
18:46 4.9 °F -1.3 °F 1019.2 in Calm     64 % 0.0 in 0.0 W/m2 CLR
18:51 4.7 °F -0.9 °F 1019.5 in Calm     67 % 0.0 in 0.0 W/m2 CLR
18:56 4.3 °F -0.8 °F 1019.2 in Calm     69 % 0.0 in 0.0 W/m2 CLR
19:01 4.1 °F -0.9 °F 1019.5 in Calm     70 % 0.0 in 0.0 W/m2 CLR
19:06 3.8 °F -0.9 °F 1019.5 in Calm     71 % 0.0 in 0.0 W/m2 CLR
19:11 3.6 °F -1.2 °F 1019.5 in Calm     71 % 0.0 in 0.0 W/m2 CLR
19:16 3.4 °F -1.2 °F 1019.5 in Calm     72 % 0.0 in 0.0 W/m2 CLR
19:21 3.2 °F -1.2 °F 1019.5 in Calm     73 % 0.0 in 0.0 W/m2 CLR
19:26 2.8 °F -1.4 °F 1019.5 in Calm     74 % 0.0 in 0.0 W/m2 CLR
19:31 2.4 °F -1.6 °F 1019.9 in Calm     75 % 0.0 in 0.0 W/m2 CLR
19:36 2.3 °F -1.5 °F 1019.9 in Calm     76 % 0.0 in 0.0 W/m2 CLR
19:41 2.2 °F -1.4 °F 1019.9 in Calm     77 % 0.0 in 0.0 W/m2 CLR
19:46 2.1 °F -1.5 °F 1019.9 in Calm     77 % 0.0 in 0.0 W/m2 CLR
19:51 2.0 °F -1.4 °F 1019.9 in Calm     78 % 0.0 in 0.0 W/m2 CLR
19:56 1.9 °F -1.6 °F 1020.2 in Calm     78 % 0.0 in 0.0 W/m2 CLR
20:01 1.7 °F -1.6 °F 1020.2 in Calm     79 % 0.0 in 0.0 W/m2 CLR
20:06 1.6 °F -1.8 °F 1020.2 in Calm     78 % 0.0 in 0.0 W/m2 CLR
20:11 1.6 °F -1.9 °F 1020.2 in Calm     78 % 0.0 in 0.0 W/m2 CLR
20:16 1.5 °F -1.7 °F 1020.2 in Calm     79 % 0.0 in 0.0 W/m2 CLR
20:21 1.4 °F -1.8 °F 1020.5 in Calm     79 % 0.0 in 0.0 W/m2 CLR
20:26 1.3 °F -1.9 °F 1020.5 in Calm     79 % 0.0 in 0.0 W/m2 CLR
20:31 1.2 °F -2.0 °F 1020.5 in Calm     79 % 0.0 in 0.0 W/m2 CLR
20:36 1.2 °F -2.0 °F 1020.5 in Calm     79 % 0.0 in 0.0 W/m2 CLR
20:41 1.3 °F -1.9 °F 1020.5 in Calm     79 % 0.0 in 0.0 W/m2 CLR
20:46 1.4 °F -2.1 °F 1020.5 in Calm     78 % 0.0 in 0.0 W/m2 CLR
20:51 1.2 °F -2.2 °F 1020.5 in Calm     78 % 0.0 in 0.0 W/m2 CLR
20:56 0.9 °F -2.3 °F 1020.5 in Calm     79 % 0.0 in 0.0 W/m2 CLR
21:01 0.7 °F -2.4 °F 1020.5 in Calm     80 % 0.0 in 0.0 W/m2 CLR
21:06 0.4 °F -2.3 °F 1020.5 in Calm     82 % 0.0 in 0.0 W/m2 CLR
21:11 0.3 °F -2.4 °F 1020.5 in Calm     82 % 0.0 in 0.0 W/m2 CLR
21:16 0.2 °F -2.5 °F 1020.9 in Calm     82 % 0.0 in 0.0 W/m2 CLR
21:21 0.1 °F -2.6 °F 1020.9 in Calm     82 % 0.0 in 0.0 W/m2 CLR
21:26 0.1 °F -2.4 °F 1020.9 in Calm     83 % 0.0 in 0.0 W/m2 CLR
21:31 0.0 °F -2.6 °F 1020.9 in Calm     83 % 0.0 in 0.0 W/m2 CLR
21:36 0.1 °F -2.4 °F 1020.9 in Calm     83 % 0.0 in 0.0 W/m2 CLR
21:41 -0.1 °F -2.6 °F 1020.9 in Calm     83 % 0.0 in 0.0 W/m2 CLR
21:46 -0.2 °F -2.8 °F 1020.9 in Calm     83 % 0.0 in 0.0 W/m2 CLR
21:51 -0.3 °F -2.7 °F 1020.9 in Calm     84 % 0.0 in 0.0 W/m2 CLR
21:56 -0.4 °F -2.8 °F 1020.9 in Calm     84 % 0.0 in 0.0 W/m2 CLR
22:01 -0.4 °F -2.6 °F 1020.9 in Calm     85 % 0.0 in 0.0 W/m2 CLR
22:06 -0.4 °F -2.7 °F 1020.9 in Calm     85 % 0.0 in 0.0 W/m2 CLR
22:11 -0.6 °F -2.8 °F 1020.9 in Calm     85 % 0.0 in 0.0 W/m2 CLR
22:16 -0.6 °F -2.8 °F 1021.2 in Calm     85 % 0.0 in 0.0 W/m2 CLR
22:21 -0.6 °F -2.8 °F 1021.2 in Calm     85 % 0.0 in 0.0 W/m2 CLR
22:26 -0.7 °F -2.9 °F 1021.2 in Calm     85 % 0.0 in 0.0 W/m2 CLR
22:31 -0.7 °F -2.8 °F 1021.2 in Calm     86 % 0.0 in 0.0 W/m2 CLR
22:36 -0.7 °F -2.7 °F 1021.2 in Calm     86 % 0.0 in 0.0 W/m2 CLR
22:41 -0.6 °F -2.8 °F 1021.2 in Calm     85 % 0.0 in 0.0 W/m2 CLR
22:46 -0.7 °F -2.9 °F 1021.2 in Calm     85 % 0.0 in 0.0 W/m2 CLR
22:51 -0.8 °F -2.9 °F 1021.2 in Calm     86 % 0.0 in 0.0 W/m2 CLR
22:52 -0.8 °F -2.9 °F 1021.2 in Calm     86 % 0.0 in 0.0 W/m2 CLR
22:57 -0.9 °F -2.9 °F 1021.2 in Calm     86 % 0.0 in 0.0 W/m2 CLR
23:02 -0.9 °F -3.0 °F 1021.2 in Calm     86 % 0.0 in 0.0 W/m2 CLR
23:07 -1.1 °F -3.1 °F 1021.2 in Calm     86 % 0.0 in 0.0 W/m2 CLR
23:12 -1.1 °F -3.0 °F 1021.2 in Calm     87 % 0.0 in 0.0 W/m2 CLR
23:17 -1.2 °F -3.1 °F 1021.2 in Calm     87 % 0.0 in 0.0 W/m2 CLR
23:22 -1.3 °F -3.2 °F 1021.2 in Calm     87 % 0.0 in 0.0 W/m2 CLR
23:27 -1.3 °F -3.2 °F 1021.2 in Calm     87 % 0.0 in 0.0 W/m2 CLR
23:32 -1.4 °F -3.3 °F 1021.2 in Calm     87 % 0.0 in 0.0 W/m2 CLR
23:37 -1.4 °F -3.1 °F 1021.2 in Calm     88 % 0.0 in 0.0 W/m2 CLR
23:42 -1.5 °F -3.2 °F 1021.2 in Calm     88 % 0.0 in 0.0 W/m2 CLR
23:47 -1.6 °F -3.3 °F 1021.2 in Calm     88 % 0.0 in 0.0 W/m2 CLR
23:52 -1.6 °F -3.3 °F 1021.2 in Calm     88 % 0.0 in 0.0 W/m2 CLR
23:57 -1.6 °F -3.3 °F 1021.2 in Calm     88 % 0.0 in 0.0 W/m2 CLR
Lo Temps de Massalio
Compliments of Weather Underground - 1.25 mb